Time;durP1;ratioP1;P1;durP2;ratioP2;P2;SDS_P1;SDS_P2;PMS_P1;PMS_P2;Temp;Humidity;BMP_temperature;BMP_pressure;BME280_temperature;BME280_humidity;BME280_pressure;Samples;Min_cycle;Max_cycle;Signal;HPM_P1;HPM_P2
2024/02/07 00:00:09;;;;;;;11.80;7.07;;;9.50;1.00;;;;;;4977304;28;20490;-61
2024/02/07 00:02:36;;;;;;;13.23;6.57;;;9.50;37.70;;;;;;4977376;28;20725;-62
2024/02/07 00:05:03;;;;;;;15.23;7.63;;;9.50;1.00;;;;;;4976535;28;20932;-62
2024/02/07 00:07:33;;;;;;;13.17;7.97;;;9.50;12.90;;;;;;4976521;28;20494;-61
2024/02/07 00:10:00;;;;;;;14.40;8.10;;;9.60;99.90;;;;;;4976640;28;20505;-62
2024/02/07 00:12:30;;;;;;;12.70;7.60;;;9.50;99.90;;;;;;4977222;28;20468;-62
2024/02/07 00:14:57;;;;;;;12.20;8.13;;;9.60;1.00;;;;;;4977106;28;20818;-62
2024/02/07 00:17:25;;;;;;;13.43;7.83;;;9.60;99.90;;;;;;4975896;28;20472;-62
2024/02/07 00:19:52;;;;;;;11.40;7.73;;;9.60;99.90;;;;;;4976697;28;20898;-62
2024/02/07 00:22:20;;;;;;;14.13;7.63;;;9.60;99.90;;;;;;4976875;28;20470;-61
2024/02/07 00:24:49;;;;;;;13.77;7.57;;;9.60;1.00;;;;;;4976875;28;20469;-61
2024/02/07 00:27:16;;;;;;;11.10;8.03;;;9.60;1.00;;;;;;4976667;28;20465;-63
2024/02/07 00:29:43;;;;;;;14.13;8.23;;;9.60;1.00;;;;;;4977055;28;20882;-63
2024/02/07 00:32:11;;;;;;;12.50;7.63;;;9.60;1.00;;;;;;4976868;28;20489;-61
2024/02/07 00:34:38;;;;;;;11.80;8.30;;;9.60;23.20;;;;;;4976625;28;20465;-62
2024/02/07 00:37:06;;;;;;;13.30;8.27;;;9.60;57.30;;;;;;4976146;28;20458;-63
2024/02/07 00:39:37;;;;;;;12.47;7.73;;;9.60;99.90;;;;;;4976680;28;20560;-62
2024/02/07 00:42:06;;;;;;;13.50;8.77;;;9.60;99.90;;;;;;4976623;28;20533;-62
2024/02/07 00:44:37;;;;;;;12.80;8.57;;;9.60;99.90;;;;;;4976891;28;20462;-63
2024/02/07 00:47:05;;;;;;;14.23;8.37;;;9.60;99.90;;;;;;4976378;28;20462;-61
2024/02/07 00:49:33;;;;;;;12.70;8.70;;;9.60;99.90;;;;;;4976168;28;20461;-63
2024/02/07 00:52:00;;;;;;;12.80;9.43;;;9.60;99.90;;;;;;4976349;28;20458;-63
2024/02/07 00:54:27;;;;;;;10.23;8.60;;;9.60;99.90;;;;;;4976628;28;20461;-61
2024/02/07 00:56:56;;;;;;;15.27;10.30;;;9.60;99.90;;;;;;4976052;28;20466;-62
2024/02/07 00:59:25;;;;;;;13.00;9.20;;;9.60;99.90;;;;;;4976319;28;20462;-63
2024/02/07 01:01:53;;;;;;;10.60;8.87;;;9.60;99.90;;;;;;4976238;28;20551;-62
2024/02/07 01:04:21;;;;;;;12.00;8.00;;;9.70;99.90;;;;;;4976437;28;20526;-62
2024/02/07 01:06:48;;;;;;;10.73;7.97;;;9.70;99.90;;;;;;4976279;28;20497;-61
2024/02/07 01:09:16;;;;;;;10.87;7.67;;;9.80;99.90;;;;;;4975913;28;20985;-62
2024/02/07 01:11:44;;;;;;;9.50;7.23;;;9.70;99.90;;;;;;4975846;28;20519;-63
2024/02/07 01:14:11;;;;;;;15.60;8.70;;;9.70;99.90;;;;;;4976116;28;20778;-63
2024/02/07 01:16:40;;;;;;;12.07;8.40;;;9.80;99.90;;;;;;4975774;28;20461;-61
2024/02/07 01:19:08;;;;;;;14.23;8.67;;;9.80;99.90;;;;;;4975908;28;20469;-62
2024/02/07 01:21:36;;;;;;;15.90;8.40;;;9.80;99.90;;;;;;4975647;28;20497;-63
2024/02/07 01:24:06;;;;;;;15.17;8.70;;;9.80;99.90;;;;;;4976176;28;20481;-60
2024/02/07 01:26:35;;;;;;;11.97;6.90;;;9.80;99.90;;;;;;4976415;28;20473;-61
2024/02/07 01:29:03;;;;;;;11.80;8.20;;;9.80;99.90;;;;;;4975333;28;20462;-62
2024/02/07 01:31:30;;;;;;;11.93;7.53;;;9.80;99.90;;;;;;4975446;28;20464;-62
2024/02/07 01:34:00;;;;;;;10.30;6.90;;;9.80;99.90;;;;;;4975944;28;20462;-63
2024/02/07 01:36:27;;;;;;;10.97;7.43;;;9.80;99.90;;;;;;4976209;28;20548;-63
2024/02/07 01:38:55;;;;;;;12.00;8.00;;;9.80;99.90;;;;;;4975996;28;20544;-63
2024/02/07 01:41:23;;;;;;;10.47;7.37;;;9.80;99.90;;;;;;4975520;28;20500;-63
2024/02/07 01:43:51;;;;;;;10.40;7.53;;;9.80;99.90;;;;;;4975843;28;20498;-63
2024/02/07 01:46:18;;;;;;;9.93;7.20;;;9.80;99.90;;;;;;4975779;28;20465;-64
2024/02/07 01:48:46;;;;;;;8.27;6.83;;;9.80;99.90;;;;;;4975710;28;20466;-62
2024/02/07 01:51:15;;;;;;;8.20;5.47;;;9.80;99.90;;;;;;4975284;28;20500;-62
2024/02/07 01:53:44;;;;;;;10.20;6.77;;;9.80;99.90;;;;;;4975419;28;20802;-62
2024/02/07 01:56:11;;;;;;;9.10;6.70;;;9.80;99.90;;;;;;4975530;28;20515;-62
2024/02/07 01:58:39;;;;;;;9.50;7.00;;;9.80;99.90;;;;;;4975518;28;20515;-64
2024/02/07 02:01:07;;;;;;;7.97;6.00;;;9.80;99.90;;;;;;4975318;28;20588;-63
2024/02/07 02:03:34;;;;;;;10.13;6.60;;;9.80;99.90;;;;;;4975138;28;20505;-64
2024/02/07 02:06:01;;;;;;;9.80;6.87;;;9.80;99.90;;;;;;4975354;28;20470;-62
2024/02/07 02:08:30;;;;;;;10.40;7.70;;;9.70;99.90;;;;;;4975058;28;20502;-64
2024/02/07 02:11:04;;;;;;;9.00;6.70;;;9.70;99.90;;;;;;4975852;28;20458;-63
2024/02/07 02:13:32;;;;;;;10.90;7.30;;;9.80;99.90;;;;;;4975722;28;20910;-63
2024/02/07 02:15:59;;;;;;;9.30;6.60;;;9.70;99.90;;;;;;4975240;28;20493;-64
2024/02/07 02:18:26;;;;;;;10.80;7.50;;;9.70;99.90;;;;;;4975673;28;20620;-63
2024/02/07 02:20:53;;;;;;;11.33;7.87;;;9.70;99.90;;;;;;4975631;28;20942;-63
2024/02/07 02:23:42;;;;;;;9.30;6.43;;;9.70;99.90;;;;;;4975114;28;20465;-63
2024/02/07 02:26:43;;;;;;;10.00;7.17;;;9.70;99.90;;;;;;4975243;28;20462;-64
2024/02/07 02:29:25;;;;;;;10.40;7.60;;;9.70;99.90;;;;;;4975412;28;20470;-64
2024/02/07 02:31:57;;;;;;;9.57;7.33;;;9.60;99.90;;;;;;4975055;28;20511;-63
2024/02/07 02:34:27;;;;;;;12.13;7.53;;;9.60;99.90;;;;;;4975425;28;20899;-63
2024/02/07 02:36:55;;;;;;;9.40;7.23;;;9.60;99.90;;;;;;4974674;28;20743;-63
2024/02/07 02:39:27;;;;;;;13.60;7.43;;;9.70;99.90;;;;;;4974911;28;20527;-62
2024/02/07 02:41:54;;;;;;;11.00;7.77;;;9.70;99.90;;;;;;4976964;28;21040;-63
2024/02/07 02:44:25;;;;;;;8.60;6.53;;;9.70;99.90;;;;;;4978533;28;20465;-63
2024/02/07 02:46:54;;;;;;;12.07;7.33;;;9.70;99.90;;;;;;4978729;28;20457;-63
2024/02/07 02:49:21;;;;;;;12.17;7.00;;;9.70;99.90;;;;;;4978706;28;20905;-61
2024/02/07 02:51:49;;;;;;;9.83;6.23;;;9.70;99.90;;;;;;4978166;28;20503;-63
2024/02/07 02:54:16;;;;;;;11.57;7.90;;;9.70;99.90;;;;;;4978535;28;20462;-63
2024/02/07 02:56:44;;;;;;;9.43;6.80;;;9.70;99.90;;;;;;4978463;28;20518;-62
2024/02/07 02:59:12;;;;;;;13.73;6.60;;;9.70;99.90;;;;;;4977804;28;20543;-63
2024/02/07 03:01:41;;;;;;;10.53;7.27;;;9.70;99.90;;;;;;4978138;28;20863;-61
2024/02/07 03:04:15;;;;;;;13.23;7.37;;;9.70;99.90;;;;;;4978032;28;20466;-62
2024/02/07 03:06:58;;;;;;;8.10;7.30;;;9.60;99.90;;;;;;4978114;28;20736;-62
2024/02/07 03:09:26;;;;;;;13.93;7.27;;;9.60;99.90;;;;;;4977591;28;20581;-62
2024/02/07 03:11:54;;;;;;;13.07;6.77;;;9.60;99.90;;;;;;4977934;28;20469;-63
2024/02/07 03:14:21;;;;;;;12.33;6.70;;;9.60;99.90;;;;;;4978016;28;20465;-61
2024/02/07 03:16:50;;;;;;;9.53;6.83;;;9.60;99.90;;;;;;4978175;28;20473;-63
2024/02/07 03:19:17;;;;;;;9.67;7.17;;;9.60;99.90;;;;;;4977743;28;20490;-63
2024/02/07 03:21:46;;;;;;;8.43;6.50;;;9.60;99.90;;;;;;4977682;28;20596;-62
2024/02/07 03:24:13;;;;;;;10.37;6.57;;;9.60;99.90;;;;;;4977591;28;20466;-63
2024/02/07 03:26:44;;;;;;;8.90;6.50;;;9.60;99.90;;;;;;4977681;28;20468;-62
2024/02/07 03:29:12;;;;;;;8.60;6.47;;;9.60;99.90;;;;;;4977458;28;20470;-64
2024/02/07 03:31:40;;;;;;;11.37;6.10;;;9.60;99.90;;;;;;4977717;28;20465;-61
2024/02/07 03:34:09;;;;;;;7.00;5.57;;;9.70;99.90;;;;;;4977733;28;20894;-62
2024/02/07 03:36:36;;;;;;;9.43;6.33;;;9.60;99.90;;;;;;4977418;28;20466;-62
2024/02/07 03:39:05;;;;;;;14.73;6.57;;;9.60;99.90;;;;;;4977443;28;20465;-63
2024/02/07 03:41:32;;;;;;;12.67;5.77;;;9.60;99.90;;;;;;4977403;28;20494;-63
2024/02/07 03:43:59;;;;;;;9.77;6.30;;;9.60;99.90;;;;;;4977841;28;20493;-62
2024/02/07 03:46:27;;;;;;;7.60;5.20;;;9.70;99.90;;;;;;4977672;28;20763;-65
2024/02/07 03:48:54;;;;;;;8.60;5.80;;;9.60;99.90;;;;;;4977209;28;20891;-61
2024/02/07 03:51:27;;;;;;;7.20;4.57;;;9.70;99.90;;;;;;4977381;28;20871;-62
2024/02/07 03:53:54;;;;;;;7.13;4.87;;;9.70;99.90;;;;;;4976231;28;20473;-63
2024/02/07 03:56:22;;;;;;;7.13;4.50;;;9.70;99.90;;;;;;4977751;28;20870;-62
2024/02/07 03:58:49;;;;;;;6.60;5.53;;;9.60;99.90;;;;;;4977630;28;20462;-62
2024/02/07 04:01:18;;;;;;;7.90;4.90;;;9.60;99.90;;;;;;4977348;28;20906;-62
2024/02/07 04:03:47;;;;;;;9.07;5.10;;;9.70;99.90;;;;;;4977022;28;20466;-63
2024/02/07 04:06:15;;;;;;;7.27;5.27;;;9.70;99.90;;;;;;4977281;28;20466;-63
2024/02/07 04:08:44;;;;;;;7.10;5.00;;;9.70;99.90;;;;;;4976882;28;20493;-62
2024/02/07 05:16:37;;;;;;;4.00;1.80;;;4.90;99.90;;;;;;4975942;28;20519;-62
2024/02/07 05:19:04;;;;;;;3.37;2.23;;;4.90;99.90;;;;;;4975799;28;20462;-62
2024/02/07 05:21:35;;;;;;;3.07;1.97;;;4.90;99.90;;;;;;4976814;28;20543;-62
2024/02/07 05:24:05;;;;;;;3.13;1.70;;;5.00;99.90;;;;;;4976489;28;20466;-62
2024/02/07 05:26:35;;;;;;;3.67;1.90;;;4.90;99.90;;;;;;4976195;28;20519;-62
2024/02/07 05:29:03;;;;;;;2.50;1.70;;;4.70;99.90;;;;;;4975708;28;20469;-62
2024/02/07 05:31:31;;;;;;;2.93;1.40;;;4.60;99.90;;;;;;4975903;28;20506;-62
2024/02/07 05:33:58;;;;;;;2.87;1.70;;;4.50;99.90;;;;;;4975894;28;20595;-62
2024/02/07 05:36:25;;;;;;;3.60;2.20;;;4.50;99.90;;;;;;4976108;28;20467;-62
2024/02/07 05:38:53;;;;;;;3.23;2.40;;;4.50;99.90;;;;;;4976033;28;20497;-62
2024/02/07 05:41:21;;;;;;;3.47;2.43;;;4.50;99.90;;;;;;4975373;28;20462;-62
2024/02/07 05:43:48;;;;;;;3.37;2.57;;;4.50;99.90;;;;;;4975497;28;20469;-62
2024/02/07 05:46:17;;;;;;;4.77;2.33;;;4.50;99.90;;;;;;4975869;28;20552;-62
2024/02/07 05:48:44;;;;;;;3.93;2.80;;;4.50;99.90;;;;;;4975468;28;20466;-62
2024/02/07 05:51:19;;;;;;;4.57;3.00;;;4.50;99.90;;;;;;4975689;28;20461;-62
2024/02/07 05:53:47;;;;;;;5.83;3.10;;;4.60;99.90;;;;;;4975652;28;20500;-62
2024/02/07 05:56:15;;;;;;;4.13;3.23;;;4.60;99.90;;;;;;4975364;28;20464;-62
2024/02/07 05:58:42;;;;;;;4.00;3.40;;;4.40;99.90;;;;;;4975731;28;20480;-61
2024/02/07 06:01:11;;;;;;;3.80;2.93;;;4.40;99.90;;;;;;4975362;28;20557;-62
2024/02/07 06:03:40;;;;;;;4.70;3.17;;;4.40;99.90;;;;;;4974862;28;20475;-62
2024/02/07 06:06:07;;;;;;;4.80;3.60;;;4.40;99.90;;;;;;4975214;28;20490;-62
2024/02/07 06:08:36;;;;;;;5.77;4.10;;;4.30;99.90;;;;;;4975271;28;20539;-62
2024/02/07 06:11:05;;;;;;;5.40;4.00;;;4.40;99.90;;;;;;4975362;28;20520;-62
2024/02/07 06:13:32;;;;;;;4.13;3.50;;;4.50;99.90;;;;;;4975262;28;20466;-62
2024/02/07 06:16:00;;;;;;;5.50;3.97;;;4.40;99.90;;;;;;4976476;28;20527;-62
2024/02/07 06:18:27;;;;;;;4.70;4.10;;;4.50;99.90;;;;;;4978614;28;20462;-62
2024/02/07 06:20:56;;;;;;;5.77;4.57;;;4.50;99.90;;;;;;4978673;28;20867;-62
2024/02/07 06:23:23;;;;;;;5.23;4.13;;;4.60;99.90;;;;;;4977400;28;20588;-62
2024/02/07 06:25:50;;;;;;;6.30;4.10;;;4.50;99.90;;;;;;4978354;28;20921;-62
2024/02/07 06:28:17;;;;;;;3.40;2.60;;;4.60;99.90;;;;;;4978867;28;20500;-62
2024/02/07 06:30:45;;;;;;;4.37;2.70;;;4.50;99.90;;;;;;4978463;28;20568;-62
2024/02/07 06:33:12;;;;;;;5.40;2.10;;;4.50;99.90;;;;;;4978061;28;20458;-62
2024/02/07 06:35:40;;;;;;;3.50;2.53;;;4.50;99.90;;;;;;4978507;28;20879;-62
2024/02/07 06:38:08;;;;;;;4.70;2.30;;;4.50;99.90;;;;;;4978698;28;20462;-66
2024/02/07 06:40:36;;;;;;;3.70;2.13;;;4.40;99.90;;;;;;4978147;28;20519;-66
2024/02/07 06:43:03;;;;;;;5.23;2.20;;;4.40;99.90;;;;;;4978347;28;20584;-66
2024/02/07 06:45:31;;;;;;;4.10;2.40;;;4.50;99.90;;;;;;4978307;28;20564;-66
2024/02/07 06:47:58;;;;;;;3.90;2.80;;;4.60;99.90;;;;;;4978468;28;20906;-66
2024/02/07 06:50:25;;;;;;;4.57;2.80;;;4.50;99.90;;;;;;4977925;28;20466;-66
2024/02/07 06:52:53;;;;;;;4.30;2.63;;;4.50;99.90;;;;;;4978740;28;20886;-66
2024/02/07 06:55:23;;;;;;;4.50;2.60;;;4.40;99.90;;;;;;4976665;28;20457;-66
2024/02/07 06:57:50;;;;;;;3.93;2.50;;;4.50;99.90;;;;;;4977281;28;20494;-66
2024/02/07 07:00:18;;;;;;;4.60;2.80;;;4.60;99.90;;;;;;4976076;28;20458;-66
2024/02/07 07:02:46;;;;;;;6.40;2.83;;;4.60;99.90;;;;;;4975770;28;20494;-66
2024/02/07 07:05:13;;;;;;;7.80;2.90;;;4.60;99.90;;;;;;4975489;28;20466;-66
2024/02/07 07:07:40;;;;;;;4.80;2.43;;;4.50;99.90;;;;;;4976200;28;20510;-66
2024/02/07 07:10:09;;;;;;;3.80;2.53;;;4.40;99.90;;;;;;4976565;28;20461;-66
2024/02/07 07:12:37;;;;;;;6.00;2.20;;;4.20;99.90;;;;;;4972919;28;20458;-66
2024/02/07 07:15:06;;;;;;;4.63;2.17;;;4.20;99.90;;;;;;4975345;28;20501;-66
2024/02/07 07:17:33;;;;;;;7.83;2.40;;;4.10;99.90;;;;;;4976212;28;20804;-68
2024/02/07 07:20:01;;;;;;;5.87;2.53;;;4.10;99.90;;;;;;4975504;28;20473;-66
2024/02/07 07:22:28;;;;;;;3.83;1.80;;;4.00;99.90;;;;;;4975993;28;20497;-66
2024/02/07 07:24:56;;;;;;;4.40;2.07;;;3.80;99.90;;;;;;4976127;28;20469;-66
2024/02/07 07:27:23;;;;;;;4.10;1.80;;;3.80;99.90;;;;;;4975649;28;20472;-66
2024/02/07 07:29:52;;;;;;;4.17;1.80;;;3.70;99.90;;;;;;4975895;28;20457;-66
2024/02/07 07:32:19;;;;;;;7.10;2.00;;;3.60;99.90;;;;;;4977591;28;20503;-66
2024/02/07 07:34:46;;;;;;;4.33;2.17;;;3.50;99.90;;;;;;4977572;28;20748;-66
2024/02/07 07:37:14;;;;;;;7.30;2.60;;;3.50;99.90;;;;;;4977298;28;20515;-66
2024/02/07 07:39:43;;;;;;;3.97;2.40;;;3.60;99.90;;;;;;4977504;28;20472;-67
2024/02/07 07:42:10;;;;;;;4.97;2.93;;;3.60;99.90;;;;;;4977579;28;20462;-66
2024/02/07 07:44:40;;;;;;;3.53;2.67;;;3.60;99.90;;;;;;4977419;28;20471;-67
2024/02/07 07:47:09;;;;;;;4.50;2.30;;;3.60;99.90;;;;;;4977413;28;20466;-66
2024/02/07 07:49:36;;;;;;;4.17;2.93;;;3.50;99.90;;;;;;4977156;28;20479;-66
2024/02/07 07:52:04;;;;;;;5.10;3.33;;;3.50;99.90;;;;;;4977298;28;20901;-66
2024/02/07 07:54:32;;;;;;;3.80;2.80;;;3.50;99.90;;;;;;4977429;28;20507;-67
2024/02/07 07:56:59;;;;;;;5.53;3.43;;;3.40;99.90;;;;;;4976764;28;20559;-66
2024/02/07 07:59:27;;;;;;;4.50;3.20;;;3.40;99.90;;;;;;4977086;28;20467;-67
2024/02/07 08:01:58;;;;;;;4.87;3.60;;;3.40;99.90;;;;;;4976705;28;20444;-66
2024/02/07 08:04:27;;;;;;;5.00;3.43;;;3.40;99.90;;;;;;4975737;28;20462;-67
2024/02/07 08:06:55;;;;;;;4.60;3.57;;;3.50;99.90;;;;;;4975157;28;20446;-66
2024/02/07 08:09:23;;;;;;;6.30;3.97;;;3.40;99.90;;;;;;4975516;28;20493;-67
2024/02/07 08:11:50;;;;;;;5.60;4.07;;;3.40;99.90;;;;;;4975488;28;20781;-66
2024/02/07 08:14:18;;;;;;;5.63;4.30;;;3.40;99.90;;;;;;4975615;28;20432;-66
2024/02/07 08:16:46;;;;;;;5.03;3.97;;;3.50;99.90;;;;;;4975885;28;20805;-66
2024/02/07 08:19:14;;;;;;;5.30;4.00;;;3.50;99.90;;;;;;4976186;28;20515;-66
2024/02/07 08:21:43;;;;;;;5.00;4.50;;;3.50;99.90;;;;;;4976522;28;20462;-66
2024/02/07 08:24:10;;;;;;;4.70;3.80;;;3.50;99.90;;;;;;4976639;28;20498;-66
2024/02/07 08:26:38;;;;;;;5.30;4.47;;;3.60;99.90;;;;;;4976839;28;20462;-66
2024/02/07 08:29:05;;;;;;;5.77;4.43;;;3.60;99.90;;;;;;4976472;28;20982;-66
2024/02/07 08:31:33;;;;;;;6.60;4.20;;;3.60;99.90;;;;;;4976578;28;20466;-66
2024/02/07 08:34:00;;;;;;;5.87;3.93;;;3.70;99.90;;;;;;4976781;28;20773;-67
2024/02/07 08:36:28;;;;;;;7.00;4.40;;;3.70;99.90;;;;;;4976659;28;20894;-66
2024/02/07 08:38:57;;;;;;;5.30;4.07;;;3.90;99.90;;;;;;4975888;28;20462;-66
2024/02/07 08:41:24;;;;;;;5.80;3.50;;;3.90;99.90;;;;;;4976838;28;20479;-66
2024/02/07 08:43:51;;;;;;;4.27;3.23;;;3.90;99.90;;;;;;4976160;28;20958;-66
2024/02/07 08:46:19;;;;;;;5.43;2.90;;;3.90;99.90;;;;;;4976830;28;20777;-65
2024/02/07 08:48:47;;;;;;;5.60;3.07;;;3.90;99.90;;;;;;4976561;28;20463;-66
2024/02/07 08:51:14;;;;;;;6.43;2.93;;;3.90;99.90;;;;;;4975779;28;20859;-66
2024/02/07 08:53:42;;;;;;;4.00;3.30;;;3.80;99.90;;;;;;4976416;28;20432;-66
2024/02/07 08:56:11;;;;;;;5.00;3.10;;;3.90;99.90;;;;;;4976353;28;20462;-66
2024/02/07 08:58:39;;;;;;;5.20;2.67;;;4.00;99.90;;;;;;4976402;28;20490;-66
2024/02/07 09:01:08;;;;;;;3.70;2.60;;;3.80;99.90;;;;;;4976070;28;20560;-67
2024/02/07 09:03:36;;;;;;;4.70;3.27;;;3.90;23.70;;;;;;4976048;28;20798;-67
2024/02/07 09:06:04;;;;;;;5.30;3.07;;;4.10;58.80;;;;;;4975961;28;20468;-67
2024/02/07 09:08:31;;;;;;;3.73;3.07;;;4.00;1.00;;;;;;4975697;28;20544;-68
2024/02/07 09:10:58;;;;;;;6.93;3.60;;;4.00;1.00;;;;;;4975622;28;20469;-67
2024/02/07 09:13:27;;;;;;;5.80;3.27;;;4.00;1.00;;;;;;4975173;28;20513;-67
2024/02/07 09:15:54;;;;;;;5.13;3.57;;;4.10;1.00;;;;;;4975603;28;20458;-67
2024/02/07 09:18:22;;;;;;;6.00;3.20;;;4.10;1.00;;;;;;4976199;28;20462;-66
2024/02/07 09:20:50;;;;;;;6.27;3.30;;;4.00;76.80;;;;;;4976008;28;20931;-66
2024/02/07 09:23:17;;;;;;;6.73;4.07;;;4.00;99.90;;;;;;4975685;28;20500;-65
2024/02/07 09:25:45;;;;;;;7.27;4.90;;;4.20;99.90;;;;;;4975979;28;20556;-66
2024/02/07 09:28:12;;;;;;;5.93;4.20;;;4.10;1.00;;;;;;4975515;28;20913;-65
2024/02/07 09:30:42;;;;;;;5.33;3.70;;;4.20;99.90;;;;;;4975912;28;20468;-65
2024/02/07 09:33:09;;;;;;;6.80;4.63;;;4.10;1.00;;;;;;4975641;28;20831;-66
2024/02/07 09:35:37;;;;;;;7.43;5.20;;;4.20;1.00;;;;;;4975859;28;20497;-66
2024/02/07 09:38:04;;;;;;;6.30;5.47;;;4.30;1.00;;;;;;4976054;28;20473;-66
2024/02/07 09:40:32;;;;;;;7.00;4.53;;;4.20;1.00;;;;;;4975972;28;20464;-66
2024/02/07 09:43:01;;;;;;;8.00;4.80;;;4.30;99.90;;;;;;4975534;28;20929;-66
2024/02/07 09:45:34;;;;;;;5.80;4.30;;;4.30;1.00;;;;;;4975366;28;20515;-66
2024/02/07 09:48:11;;;;;;;5.83;4.80;;;4.20;99.90;;;;;;4975870;28;20572;-66
2024/02/07 09:50:39;;;;;;;6.33;3.63;;;4.20;1.00;;;;;;4974536;28;20457;-66
2024/02/07 09:53:09;;;;;;;5.30;4.43;;;4.30;50.40;;;;;;4974989;28;20825;-66
2024/02/07 09:55:37;;;;;;;7.63;4.40;;;4.30;29.40;;;;;;4975280;28;20580;-66
2024/02/07 09:58:08;;;;;;;7.20;4.10;;;4.40;1.00;;;;;;4975929;28;20918;-66
2024/02/07 10:00:36;;;;;;;6.70;4.17;;;4.50;99.90;;;;;;4975687;28;20876;-65
2024/02/07 10:03:08;;;;;;;9.67;5.60;;;4.50;99.90;;;;;;4974889;28;20504;-65
2024/02/07 10:05:36;;;;;;;7.40;4.43;;;4.60;27.40;;;;;;4975171;28;20462;-66
2024/02/07 10:08:06;;;;;;;7.63;4.13;;;4.60;1.00;;;;;;4975106;28;20501;-66
2024/02/07 10:10:34;;;;;;;6.47;4.37;;;4.60;99.90;;;;;;4975240;28;20470;-66
2024/02/07 10:13:02;;;;;;;7.37;4.50;;;4.60;99.90;;;;;;4974942;28;20462;-66
2024/02/07 10:15:31;;;;;;;8.00;4.67;;;4.60;99.90;;;;;;4973710;28;20964;-66
2024/02/07 10:18:00;;;;;;;8.23;3.73;;;4.60;46.70;;;;;;4993900;28;20473;-66
2024/02/07 10:20:29;;;;;;;8.43;4.30;;;4.60;34.10;;;;;;5076883;28;20461;-66
2024/02/07 10:22:57;;;;;;;7.60;3.53;;;4.70;1.00;;;;;;5061086;28;21880;-66
2024/02/07 10:25:24;;;;;;;9.27;4.00;;;4.70;1.00;;;;;;4958058;28;20479;-66
2024/02/07 10:28:02;;;;;;;8.30;4.23;;;4.60;1.00;;;;;;4956044;29;20505;-66
2024/02/07 10:30:30;;;;;;;7.63;3.60;;;4.60;99.90;;;;;;4955623;28;20520;-66
2024/02/07 10:32:57;;;;;;;6.83;3.67;;;4.70;1.00;;;;;;4955520;29;20883;-67
2024/02/07 10:35:25;;;;;;;8.37;4.77;;;4.70;1.00;;;;;;4955373;28;20471;-67
2024/02/07 10:37:55;;;;;;;10.23;5.87;;;4.80;1.00;;;;;;4955457;28;20569;-67
2024/02/07 10:40:23;;;;;;;12.23;5.43;;;4.70;99.90;;;;;;4955503;28;20470;-66
2024/02/07 10:42:57;;;;;;;9.20;5.30;;;4.60;99.90;;;;;;4956094;28;20463;-66
2024/02/07 10:45:25;;;;;;;11.17;4.37;;;4.50;1.00;;;;;;4955485;28;20573;-66
2024/02/07 10:47:53;;;;;;;7.83;5.10;;;4.50;40.30;;;;;;4955484;28;20750;-66
2024/02/07 10:50:22;;;;;;;8.73;4.03;;;4.70;99.90;;;;;;4968349;28;20573;-66
2024/02/07 10:52:50;;;;;;;9.53;5.00;;;4.80;99.90;;;;;;4953555;28;20566;-66
2024/02/07 10:55:21;;;;;;;13.00;7.23;;;4.70;71.00;;;;;;4954015;28;20517;-67
2024/02/07 10:57:52;;;;;;;10.20;6.27;;;4.70;26.60;;;;;;4967379;28;20798;-66
2024/02/07 11:00:20;;;;;;;12.17;6.20;;;4.80;99.90;;;;;;4970055;28;20457;-66
2024/02/07 11:02:50;;;;;;;13.40;7.20;;;4.70;99.90;;;;;;4975354;28;20462;-67
2024/02/07 11:05:21;;;;;;;11.80;7.10;;;4.60;99.90;;;;;;4976933;28;20854;-67
2024/02/07 11:07:50;;;;;;;10.50;7.97;;;4.50;99.90;;;;;;4977562;28;20841;-67
2024/02/07 11:10:19;;;;;;;13.17;7.63;;;4.50;1.00;;;;;;4977261;28;20476;-67
2024/02/07 11:12:48;;;;;;;16.77;7.97;;;4.50;1.00;;;;;;4977895;28;20462;-67
2024/02/07 11:15:18;;;;;;;12.70;8.20;;;4.60;1.00;;;;;;4976482;28;20459;-67
2024/02/07 11:17:45;;;;;;;13.67;6.50;;;4.80;99.90;;;;;;4976004;28;20828;-68
2024/02/07 11:20:13;;;;;;;12.33;6.53;;;4.60;1.00;;;;;;4976394;28;20552;-68
2024/02/07 11:22:43;;;;;;;15.13;6.97;;;4.60;99.90;;;;;;4975551;28;20462;-68
2024/02/07 11:25:14;;;;;;;14.80;7.97;;;4.80;1.00;;;;;;4976469;28;20493;-68
2024/02/07 11:27:43;;;;;;;12.47;7.30;;;4.80;1.00;;;;;;4976254;28;20470;-68
2024/02/07 11:30:12;;;;;;;18.80;7.43;;;4.90;1.00;;;;;;4976953;28;20766;-68
2024/02/07 11:32:39;;;;;;;13.63;7.47;;;4.90;99.90;;;;;;4976882;28;20882;-68
2024/02/07 11:35:10;;;;;;;13.97;7.57;;;4.90;55.50;;;;;;4976480;28;20458;-68
2024/02/07 11:37:38;;;;;;;13.27;6.87;;;5.10;99.90;;;;;;4976704;28;20498;-68
2024/02/07 11:40:06;;;;;;;14.10;8.30;;;5.20;99.90;;;;;;4976375;28;20790;-68
2024/02/07 11:42:38;;;;;;;16.90;7.60;;;5.20;99.90;;;;;;4976636;28;20491;-68
2024/02/07 11:45:12;;;;;;;13.10;8.20;;;5.40;99.90;;;;;;4976254;28;20595;-68
2024/02/07 11:47:42;;;;;;;14.97;8.97;;;5.50;99.90;;;;;;4976541;28;20501;-68
2024/02/07 11:50:14;;;;;;;12.23;7.07;;;5.50;1.00;;;;;;4976849;28;20727;-68
2024/02/07 11:52:43;;;;;;;11.07;7.10;;;5.50;99.90;;;;;;4976288;28;20854;-68
2024/02/07 11:55:11;;;;;;;14.10;7.20;;;5.60;1.00;;;;;;4976296;28;20458;-68
2024/02/07 11:57:41;;;;;;;12.93;6.80;;;5.60;99.90;;;;;;4976251;28;20749;-69
2024/02/07 12:00:15;;;;;;;12.40;6.47;;;5.50;20.30;;;;;;4976310;28;20461;-69
2024/02/07 12:02:47;;;;;;;31.97;8.17;;;5.30;77.40;;;;;;4976091;28;20884;-69
2024/02/07 12:05:16;;;;;;;15.07;7.20;;;5.30;99.90;;;;;;4975797;28;20508;-68
2024/02/07 12:07:44;;;;;;;23.80;11.90;;;5.50;1.00;;;;;;4975892;28;20486;-69
2024/02/07 12:10:12;;;;;;;16.17;7.57;;;5.60;1.00;;;;;;4976697;28;20458;-68
2024/02/07 12:12:40;;;;;;;13.57;6.43;;;5.50;55.70;;;;;;4976102;28;20517;-68
2024/02/07 12:15:08;;;;;;;15.57;5.77;;;5.50;99.90;;;;;;4975054;28;20462;-68
2024/02/07 12:17:37;;;;;;;16.97;7.00;;;5.60;84.20;;;;;;4976012;28;20473;-69
2024/02/07 12:20:06;;;;;;;9.73;5.93;;;5.70;1.00;;;;;;4973950;28;20462;-69
2024/02/07 12:22:35;;;;;;;13.30;7.00;;;5.90;56.70;;;;;;4976134;28;20708;-69
2024/02/07 12:25:04;;;;;;;13.83;6.53;;;6.00;1.00;;;;;;4975700;28;20551;-70
2024/02/07 12:27:32;;;;;;;10.93;5.83;;;6.10;1.00;;;;;;4975429;28;20466;-70
2024/02/07 12:30:00;;;;;;;14.77;6.40;;;5.90;73.50;;;;;;4974396;28;20810;-69
2024/02/07 12:32:27;;;;;;;13.67;6.20;;;5.60;25.80;;;;;;4974680;28;20890;-70
2024/02/07 12:34:59;;;;;;;16.00;7.53;;;5.60;99.90;;;;;;4975828;28;20465;-70
2024/02/07 12:37:27;;;;;;;15.80;6.57;;;5.90;99.90;;;;;;4975889;28;20466;-71
2024/02/07 12:39:54;;;;;;;18.50;5.57;;;6.00;99.90;;;;;;4975707;28;20519;-71
2024/02/07 12:42:24;;;;;;;15.30;6.13;;;6.00;99.90;;;;;;4975989;28;20488;-70
2024/02/07 12:44:52;;;;;;;14.77;5.23;;;6.10;99.90;;;;;;4975412;28;20490;-71
2024/02/07 12:47:22;;;;;;;10.87;5.77;;;6.00;1.00;;;;;;4975553;28;20462;-71
2024/02/07 12:49:51;;;;;;;11.90;5.93;;;5.90;8.60;;;;;;4975572;28;20520;-71
2024/02/07 12:52:22;;;;;;;12.37;5.60;;;6.00;31.10;;;;;;4975025;28;20511;-71
2024/02/07 12:54:51;;;;;;;12.87;6.97;;;6.00;1.00;;;;;;4975414;28;20480;-71
2024/02/07 12:57:22;;;;;;;12.87;7.17;;;6.10;1.00;;;;;;4975649;28;20473;-72
2024/02/07 12:59:51;;;;;;;12.37;5.97;;;6.20;91.80;;;;;;4975428;28;20871;-71
2024/02/07 13:02:19;;;;;;;15.40;6.33;;;5.90;1.00;;;;;;4975605;28;20560;-71
2024/02/07 13:04:47;;;;;;;14.80;6.63;;;5.90;1.00;;;;;;4975397;28;20881;-72
2024/02/07 13:07:15;;;;;;;16.33;6.07;;;5.70;1.00;;;;;;4974580;28;20560;-71
2024/02/07 13:09:44;;;;;;;14.20;5.53;;;5.80;1.00;;;;;;4975331;28;20755;-71
2024/02/07 13:12:13;;;;;;;11.97;5.60;;;5.90;1.00;;;;;;4974850;28;20484;-72
2024/02/07 13:14:41;;;;;;;8.97;5.73;;;6.00;1.00;;;;;;4975348;28;20469;-72
2024/02/07 13:17:08;;;;;;;8.93;5.37;;;6.10;30.40;;;;;;4974805;28;20910;-71
2024/02/07 13:19:36;;;;;;;9.93;5.70;;;5.90;1.00;;;;;;4974776;28;20461;-71
2024/02/07 13:22:05;;;;;;;18.63;6.23;;;5.60;1.00;;;;;;4975377;28;20469;-71
2024/02/07 13:24:33;;;;;;;16.63;5.23;;;5.40;1.00;;;;;;4974917;28;20748;-71
2024/02/07 13:27:02;;;;;;;12.27;5.53;;;5.30;1.00;;;;;;4974701;28;20568;-72
2024/02/07 13:29:29;;;;;;;15.93;5.93;;;5.30;1.00;;;;;;4975243;28;20712;-71
2024/02/07 13:31:57;;;;;;;14.60;5.73;;;5.30;99.90;;;;;;4974861;28;20573;-72
2024/02/07 13:34:25;;;;;;;10.17;6.00;;;5.30;99.90;;;;;;4975268;28;20457;-71
2024/02/07 13:36:52;;;;;;;14.83;5.83;;;5.40;99.90;;;;;;4975070;28;20462;-72
2024/02/07 13:39:20;;;;;;;13.73;4.80;;;5.40;99.90;;;;;;4974541;28;20465;-71
2024/02/07 13:41:48;;;;;;;9.53;5.50;;;5.50;99.90;;;;;;4975195;28;20457;-70
2024/02/07 13:44:17;;;;;;;11.23;4.70;;;5.40;99.90;;;;;;4975253;28;21023;-71
2024/02/07 13:46:46;;;;;;;9.67;6.00;;;5.30;99.90;;;;;;4974921;28;20941;-70
2024/02/07 13:49:14;;;;;;;10.77;5.50;;;5.20;99.90;;;;;;4974852;28;20473;-71
2024/02/07 13:51:42;;;;;;;13.03;5.97;;;5.30;99.90;;;;;;4974508;28;20466;-71
2024/02/07 13:54:09;;;;;;;13.53;6.20;;;5.50;99.90;;;;;;4974531;28;20900;-71
2024/02/07 13:56:37;;;;;;;13.10;5.93;;;5.70;99.90;;;;;;4975128;28;20465;-70
2024/02/07 13:59:04;;;;;;;14.30;5.10;;;5.50;99.90;;;;;;4974483;28;20754;-71
2024/02/07 14:01:34;;;;;;;11.70;4.97;;;5.50;99.90;;;;;;4974915;28;20927;-71
2024/02/07 14:04:03;;;;;;;11.93;5.37;;;5.60;99.90;;;;;;4974619;28;20437;-71
2024/02/07 14:06:31;;;;;;;19.87;8.00;;;5.50;99.90;;;;;;4974966;28;20473;-71